createdAt,value
2019-05-15T00:02:18.436Z,10.90
2019-05-15T00:07:20.328Z,10.80
2019-05-15T00:12:22.169Z,10.86
2019-05-15T00:17:23.950Z,10.86
2019-05-15T00:22:25.803Z,10.80
2019-05-15T00:27:28.475Z,10.79
2019-05-15T00:32:30.488Z,10.74
2019-05-15T00:37:32.329Z,10.69
2019-05-15T00:42:34.161Z,10.63
2019-05-15T00:47:36.028Z,10.70
2019-05-15T00:52:39.285Z,10.65
2019-05-15T00:57:41.369Z,10.64
2019-05-15T01:02:43.250Z,10.65
2019-05-15T01:07:45.130Z,10.56
2019-05-15T01:12:48.666Z,10.54
2019-05-15T01:17:50.759Z,10.42
2019-05-15T01:22:52.526Z,10.12
2019-05-15T01:27:54.412Z,10.09
2019-05-15T01:32:56.218Z,9.95
2019-05-15T01:37:58.583Z,10.01
2019-05-15T01:43:00.700Z,10.06
2019-05-15T01:48:03.296Z,10.09
2019-05-15T01:53:08.196Z,9.98
2019-05-15T01:58:10.012Z,9.79
2019-05-15T02:03:11.900Z,9.84
2019-05-15T02:08:13.715Z,9.94
2019-05-15T02:13:15.543Z,9.96
2019-05-15T02:18:19.184Z,9.90
2019-05-15T02:23:21.105Z,9.85
2019-05-15T02:28:22.935Z,10.06
2019-05-15T02:33:24.783Z,9.94
2019-05-15T02:38:29.547Z,9.89
2019-05-15T02:43:30.462Z,9.85
2019-05-15T02:48:32.393Z,9.90
2019-05-15T02:53:34.351Z,9.60
2019-05-15T02:58:36.194Z,9.49
2019-05-15T03:03:38.921Z,9.56
2019-05-15T03:08:41.366Z,9.57
2019-05-15T03:13:43.314Z,9.66
2019-05-15T03:18:45.177Z,9.65
2019-05-15T03:23:50.646Z,9.72
2019-05-15T03:28:51.842Z,9.74
2019-05-15T03:33:55.003Z,9.73
2019-05-15T03:38:58.730Z,9.72
2019-05-15T03:44:01.067Z,9.76
2019-05-15T03:49:02.981Z,9.74
2019-05-15T03:54:04.892Z,9.73
2019-05-15T03:59:09.363Z,9.67
2019-05-15T04:04:10.516Z,9.65
2019-05-15T04:09:12.318Z,9.76
2019-05-15T04:14:14.203Z,9.79
2019-05-15T04:19:18.839Z,9.73
2019-05-15T04:25:10.631Z,9.73
2019-05-15T04:30:13.101Z,9.72
2019-05-15T04:35:15.046Z,9.64
2019-05-15T04:40:19.315Z,9.68
2019-05-15T04:45:21.103Z,9.71
2019-05-15T04:50:23.075Z,9.66
2019-05-15T04:55:25.033Z,9.64
2019-05-15T05:00:49.585Z,9.68
2019-05-15T05:05:51.714Z,9.72
2019-05-15T05:10:53.751Z,9.82
2019-05-15T05:15:58.461Z,9.93
2019-05-15T05:20:59.347Z,9.96
2019-05-15T05:26:01.156Z,10.00
2019-05-15T05:31:03.101Z,10.11
2019-05-15T05:36:05.003Z,10.34
2019-05-15T05:41:08.154Z,10.50
2019-05-15T06:00:29.015Z,11.76
2019-05-15T06:05:30.936Z,11.68
2019-05-15T06:10:32.804Z,11.63
2019-05-15T06:15:35.015Z,11.55
2019-05-15T06:20:39.358Z,11.50
2019-05-15T06:25:40.827Z,11.45
2019-05-15T06:36:39.693Z,11.65
2019-05-15T06:41:41.563Z,11.79
2019-05-15T06:46:43.651Z,11.68
2019-05-15T06:51:45.611Z,11.67
2019-05-15T06:56:49.222Z,11.68
2019-05-15T07:01:51.415Z,11.63
2019-05-15T07:06:53.275Z,11.62
2019-05-15T07:11:55.206Z,11.58
2019-05-15T07:16:59.213Z,11.76
2019-05-15T07:34:24.062Z,12.59
2019-05-15T07:39:28.694Z,12.87
2019-05-15T07:50:59.432Z,12.88
2019-05-15T07:56:01.781Z,13.16
2019-05-15T08:01:05.460Z,13.19
2019-05-15T08:06:08.763Z,13.22
2019-05-15T08:11:20.156Z,13.24
2019-05-15T08:16:14.850Z,13.48
2019-05-15T08:45:49.594Z,13.84
2019-05-15T08:50:53.614Z,13.87
2019-05-15T09:20:12.899Z,14.04
2019-05-15T09:43:34.098Z,14.07
2019-05-15T10:13:08.867Z,14.92
2019-05-15T10:18:10.331Z,15.16
2019-05-15T10:23:12.230Z,15.27
2019-05-15T10:28:15.313Z,15.11
2019-05-15T10:33:20.153Z,15.12
2019-05-15T10:38:22.900Z,15.11
2019-05-15T10:43:24.882Z,15.05
2019-05-15T10:48:29.178Z,15.39
2019-05-15T10:53:30.725Z,16.06
2019-05-15T10:58:32.966Z,16.19
2019-05-15T11:03:35.328Z,16.30
2019-05-15T11:08:40.202Z,16.40
2019-05-15T11:13:41.363Z,16.50
2019-05-15T11:18:43.333Z,16.62
2019-05-15T11:23:45.464Z,16.71
2019-05-15T11:28:49.736Z,16.89
2019-05-15T11:33:52.846Z,17.17
2019-05-15T11:38:55.012Z,16.84
2019-05-15T11:43:57.018Z,17.01
2019-05-15T11:48:59.146Z,16.69
2019-05-15T11:54:01.091Z,16.61
2019-05-15T11:59:02.911Z,16.71
2019-05-15T12:04:04.864Z,16.88
2019-05-15T12:09:09.100Z,16.98
2019-05-15T12:14:10.843Z,17.06
2019-05-15T12:19:17.265Z,17.09
2019-05-15T12:24:16.561Z,16.98
2019-05-15T12:29:18.523Z,17.02
2019-05-15T12:34:20.522Z,17.06
2019-05-15T12:39:22.696Z,16.96
2019-05-15T13:04:42.513Z,16.12
2019-05-15T13:09:48.661Z,16.03
2019-05-15T13:14:50.730Z,15.73
2019-05-15T13:19:53.787Z,15.19
2019-05-15T13:24:55.732Z,14.94
2019-05-15T13:29:58.376Z,14.23
2019-05-15T13:35:01.978Z,14.28
2019-05-15T13:40:05.920Z,14.45
2019-05-15T13:45:12.641Z,14.50
2019-05-15T13:50:14.156Z,14.63
2019-05-15T13:55:24.811Z,13.73
2019-05-15T14:00:20.672Z,13.45
2019-05-15T14:05:22.636Z,13.67
2019-05-15T14:10:24.655Z,13.97
2019-05-15T14:15:26.952Z,13.97
2019-05-15T14:20:29.036Z,13.56
2019-05-15T14:25:32.084Z,13.63
2019-05-15T14:30:34.200Z,13.46
2019-05-15T14:35:37.930Z,12.92
2019-05-15T14:40:41.256Z,12.84
2019-05-15T14:45:43.235Z,12.73
2019-05-15T14:50:45.182Z,12.84
2019-05-15T14:55:49.252Z,12.88
2019-05-15T15:00:50.916Z,12.91
2019-05-15T15:05:52.812Z,12.73
2019-05-15T15:10:54.655Z,12.95
2019-05-15T15:15:58.921Z,13.14
2019-05-15T15:21:00.425Z,13.21
2019-05-15T15:26:02.733Z,13.41
2019-05-15T15:31:04.958Z,13.58
2019-05-15T15:36:09.396Z,13.74
2019-05-15T15:41:11.559Z,13.80
2019-05-15T15:46:13.712Z,13.72
2019-05-15T15:51:17.795Z,13.77
2019-05-15T15:56:19.529Z,13.72
2019-05-15T16:01:23.929Z,13.63
2019-05-15T16:06:25.359Z,13.66
2019-05-15T16:11:27.923Z,13.62
2019-05-15T16:16:30.087Z,13.49
2019-05-15T16:21:32.014Z,13.52
2019-05-15T16:26:33.961Z,13.38
2019-05-15T16:31:38.392Z,13.29
2019-05-15T16:36:40.639Z,13.04
2019-05-15T16:41:42.799Z,12.80
2019-05-15T16:46:49.172Z,12.54
2019-05-15T16:51:51.766Z,12.43
2019-05-15T16:56:54.764Z,12.40
2019-05-15T17:02:01.730Z,12.41
2019-05-15T17:07:03.608Z,12.44
2019-05-15T17:12:08.721Z,12.35
2019-05-15T17:17:18.520Z,12.44
2019-05-15T17:22:22.005Z,12.39
2019-05-15T17:27:28.973Z,12.16
2019-05-15T17:32:43.119Z,12.03
2019-05-15T17:37:58.106Z,12.02
2019-05-15T17:43:09.374Z,11.84
2019-05-15T17:48:15.454Z,12.01
2019-05-15T17:53:38.243Z,11.85
2019-05-15T17:58:58.191Z,11.75
2019-05-15T18:04:04.959Z,11.81
2019-05-15T18:09:08.703Z,11.60
2019-05-15T18:14:15.820Z,11.12
2019-05-15T18:19:18.868Z,11.29
2019-05-15T18:24:24.192Z,11.22
2019-05-15T18:29:34.414Z,10.96
2019-05-15T18:34:39.994Z,11.11
2019-05-15T18:39:49.362Z,10.95
2019-05-15T18:50:30.011Z,11.11
2019-05-15T18:55:42.117Z,11.23
2019-05-15T19:00:53.009Z,11.31
2019-05-15T19:06:18.620Z,11.25
2019-05-15T19:11:30.179Z,11.47
2019-05-15T19:16:38.760Z,11.42
2019-05-15T19:21:58.394Z,11.07
2019-05-15T19:27:04.140Z,11.43
2019-05-15T19:32:13.729Z,11.34
2019-05-15T19:37:40.646Z,11.28
2019-05-15T19:42:52.624Z,11.16
2019-05-15T19:48:08.925Z,11.09
2019-05-15T19:53:21.701Z,11.13
2019-05-15T19:58:44.058Z,11.06
2019-05-15T20:03:53.218Z,11.01
2019-05-15T20:09:04.494Z,11.12
2019-05-15T20:14:07.037Z,10.86
2019-05-15T20:19:11.763Z,10.73
2019-05-15T20:24:23.264Z,10.67
2019-05-15T20:29:29.025Z,10.60
2019-05-15T20:34:32.934Z,10.35
2019-05-15T20:39:38.714Z,10.19
2019-05-15T20:44:43.818Z,10.32
2019-05-15T20:49:50.479Z,10.36
2019-05-15T20:54:52.495Z,10.57
2019-05-15T20:59:54.775Z,10.62
2019-05-15T21:04:58.335Z,10.53
2019-05-15T21:10:00.833Z,10.70
2019-05-15T21:15:03.064Z,10.65
2019-05-15T21:20:05.667Z,10.60
2019-05-15T21:25:10.687Z,10.65
2019-05-15T21:30:13.477Z,10.63
2019-05-15T21:35:17.854Z,10.72
2019-05-15T21:40:19.638Z,10.74
2019-05-15T21:45:21.894Z,10.59
2019-05-15T21:50:23.877Z,10.62
2019-05-15T21:55:25.865Z,10.71
2019-05-15T22:00:38.027Z,10.66
2019-05-15T22:05:40.839Z,10.64
2019-05-15T22:10:43.128Z,10.50
2019-05-15T22:15:45.163Z,10.46
2019-05-15T22:20:48.088Z,10.51
2019-05-15T22:25:51.480Z,10.36
2019-05-15T22:30:53.549Z,10.23
2019-05-15T22:35:55.522Z,10.35
2019-05-15T22:41:03.041Z,10.27
2019-05-15T22:46:07.737Z,10.18
2019-05-15T22:51:09.851Z,10.06
2019-05-15T22:56:11.874Z,10.02
2019-05-15T23:01:13.828Z,10.22
2019-05-15T23:06:17.839Z,10.27
2019-05-15T23:11:19.629Z,10.48
2019-05-15T23:16:21.571Z,10.42
2019-05-15T23:21:23.474Z,10.45
2019-05-15T23:26:25.501Z,10.49
2019-05-15T23:31:28.059Z,10.53
2019-05-15T23:36:30.200Z,10.52
2019-05-15T23:41:32.092Z,10.49
2019-05-15T23:46:34.190Z,10.59
2019-05-15T23:51:38.335Z,10.55
2019-05-15T23:56:39.894Z,10.55
